Private Wetterstation Wechselburg
Wetterdaten: Woche 19.10.15 - 25.10.15 (KW43)
Datum Zeit Temp. +2m Bodentemp. Temp.+5cm Temp. Wind Windchill X Diff Temp. Feuchte +2m Feuchte +5cm Sonnenschein Luftdruck Regen Wind Richtung Sonnenschein Taupunkt Windchill Windben
19.10.2015 00:00 5,5 C 23,2 C 6,7 C 6,1 C 6,1 C 0,6 C 91 % 70 % 0 % 1017,9 hPa 0,0 l/m 0,0 km/h (0 Bft) N 0,00 h 4,1 C 6,1 C 0,0 km/h (0 Bft)
19.10.2015 01:00 5,4 C 23,2 C 6,5 C 6,0 C 6,0 C 0,6 C 91 % 70 % 0 % 1017,9 hPa 0,0 l/m 0,0 km/h (0 Bft) N 0,00 h 4,0 C 6,0 C 0,0 km/h (0 Bft)
19.10.2015 02:00 5,6 C 23,2 C 6,8 C 6,4 C 6,4 C 0,8 C 92 % 70 % 0 % 1017,6 hPa 0,0 l/m 0,0 km/h (0 Bft) N 0,00 h 4,3 C 6,4 C 0,0 km/h (0 Bft)
19.10.2015 03:00 5,9 C 23,2 C 7,0 C 6,6 C 6,6 C 0,8 C 92 % 70 % 0 % 1017,7 hPa 0,0 l/m 0,0 km/h (0 Bft) N 0,00 h 4,7 C 6,6 C 0,0 km/h (0 Bft)
19.10.2015 04:00 5,9 C 23,2 C 7,0 C 6,5 C 6,5 C 0,7 C 92 % 70 % 0 % 1017,9 hPa 0,0 l/m 0,0 km/h (0 Bft) N 0,00 h 4,7 C 6,5 C 0,0 km/h (0 Bft)
19.10.2015 05:00 5,7 C 23,1 C 6,9 C 6,3 C 6,3 C 0,6 C 92 % 70 % 0 % 1017,8 hPa 0,0 l/m 0,0 km/h (0 Bft) N 0,00 h 4,5 C 6,3 C 0,1 km/h (0 Bft)
19.10.2015 06:00 5,4 C 23,1 C 6,6 C 5,9 C 5,9 C 0,5 C 92 % 70 % 0 % 1017,9 hPa 0,0 l/m 0,0 km/h (0 Bft) N 0,00 h 4,2 C 5,9 C 0,0 km/h (0 Bft)
19.10.2015 07:00 5,0 C 23,0 C 6,2 C 5,4 C 5,4 C 0,5 C 92 % 70 % 2 % 1018,0 hPa 0,0 l/m 0,0 km/h (0 Bft) N 0,17 h 3,8 C 5,4 C 0,4 km/h (0 Bft)
19.10.2015 08:00 4,6 C 23,1 C 6,0 C 5,3 C 5,3 C 0,6 C 92 % 71 % 16 % 1018,2 hPa 0,0 l/m 0,0 km/h (0 Bft) N 0,00 h 3,4 C 5,3 C 0,0 km/h (0 Bft)
19.10.2015 09:00 5,0 C 23,0 C 6,5 C 6,1 C 6,1 C 1,1 C 92 % 71 % 30 % 1018,6 hPa 0,0 l/m 0,2 km/h (0 Bft) N 0,00 h 3,9 C 6,1 C 0,7 km/h (0 Bft)
19.10.2015 10:00 5,9 C 22,7 C 7,8 C 8,7 C 8,7 C 2,7 C 93 % 70 % 72 % 1019,1 hPa 0,0 l/m 0,4 km/h (0 Bft) N 0,50 h 4,9 C 8,7 C 1,3 km/h (1 Bft)
19.10.2015 11:00 6,9 C 22,6 C 8,7 C 10,8 C 10,8 C 4,0 C 93 % 70 % 99 % 1019,2 hPa 0,0 l/m 0,4 km/h (0 Bft) N 1,00 h 5,8 C 10,8 C 0,2 km/h (0 Bft)
19.10.2015 12:00 7,6 C 22,6 C 8,9 C 11,1 C 11,1 C 3,6 C 92 % 77 % 89 % 1019,3 hPa 0,0 l/m 0,4 km/h (0 Bft) N 0,58 h 6,3 C 11,1 C 1,3 km/h (1 Bft)
19.10.2015 13:00 7,4 C 22,6 C 8,7 C 10,2 C 10,2 C 2,8 C 90 % 81 % 74 % 1018,8 hPa 0,0 l/m 0,7 km/h (0 Bft) SW 0,00 h 5,9 C 10,2 C 1,5 km/h (1 Bft)
19.10.2015 14:00 7,3 C 22,6 C 8,9 C 10,4 C 10,4 C 3,0 C 88 % 83 % 79 % 1018,4 hPa 0,0 l/m 1,1 km/h (1 Bft) W-SW 0,25 h 5,5 C 10,4 C 1,1 km/h (1 Bft)
19.10.2015 15:00 7,5 C 22,6 C 9,2 C 10,9 C 10,9 C 3,4 C 87 % 86 % 88 % 1018,9 hPa 0,0 l/m 1,2 km/h (1 Bft) SW 0,50 h 5,5 C 10,9 C 1,7 km/h (1 Bft)
19.10.2015 16:00 7,2 C 22,6 C 8,8 C 9,7 C 9,7 C 2,4 C 86 % 87 % 64 % 1018,7 hPa 0,0 l/m 0,6 km/h (0 Bft) SW 0,92 h 5,1 C 9,7 C 0,4 km/h (0 Bft)
19.10.2015 17:00 7,0 C 22,7 C 8,3 C 8,5 C 8,5 C 1,5 C 86 % 87 % 40 % 1018,8 hPa 0,0 l/m 0,0 km/h (0 Bft) N 1,00 h 4,8 C 8,5 C 0,0 km/h (0 Bft)
19.10.2015 18:00 5,9 C 22,9 C 7,1 C 6,3 C 6,3 C 0,4 C 86 % 86 % 0 % 1019,1 hPa 0,0 l/m 0,0 km/h (0 Bft) N 0,00 h 3,8 C 6,3 C 0,0 km/h (0 Bft)
19.10.2015 19:00 5,0 C 22,9 C 6,1 C 5,3 C 5,3 C 0,4 C 88 % 84 % 0 % 1019,7 hPa 0,0 l/m 0,0 km/h (0 Bft) N 0,00 h 3,1 C 5,3 C 0,0 km/h (0 Bft)
19.10.2015 20:00 4,6 C 23,0 C 5,6 C 5,1 C 5,1 C 0,5 C 89 % 82 % 0 % 1019,9 hPa 0,0 l/m 0,0 km/h (0 Bft) N 0,00 h 2,9 C 5,1 C 0,0 km/h (0 Bft)
19.10.2015 21:00 4,0 C 23,0 C 5,0 C 4,2 C 4,2 C 0,2 C 89 % 81 % 0 % 1019,9 hPa 0,0 l/m 0,0 km/h (0 Bft) N 0,00 h 2,4 C 4,2 C 0,0 km/h (0 Bft)
19.10.2015 22:00 2,8 C 22,9 C 4,0 C 2,8 C 2,7 C 0,1 C 89 % 82 % 0 % 1019,9 hPa 0,0 l/m 0,0 km/h (0 Bft) N 0,00 h 1,2 C 2,7 C 0,0 km/h (0 Bft)
19.10.2015 23:00 2,8 C 22,9 C 4,3 C 3,8 C 3,8 C 1,0 C 90 % 79 % 0 % 1019,8 hPa 0,0 l/m 0,0 km/h (0 Bft) N 0,00 h 1,4 C 3,8 C 0,0 km/h (0 Bft)
20.10.2015 00:00 3,5 C 22,9 C 4,7 C 4,6 C 4,6 C 1,1 C 91 % 77 % 0 % 1019,9 hPa 0,0 l/m 0,0 km/h (0 Bft) N 0,00 h 2,1 C 4,6 C 0,0 km/h (0 Bft)
Min-Datum _ 19.10.15 19.10.15 19.10.15 19.10.15 19.10.15 19.10.15 19.10.15 19.10.15 19.10.15 19.10.15 - 19.10.15 - - 19.10.15 19.10.15 19.10.15
_ Min-Zeit 22:40 10:47 22:35 22:35 22:30 21:30 17:12 10:32 00:00 01:15 - 00:00 - - 22:40 22:30 00:00
Minimum _ 2,4 C 22,6 C 3,7 C 2,4 C 2,3 C 0,0 C 85 % 69 % 0 % 1017,4 hPa - 0,0 km/h (0 Bft) - - 0,8 C 2,3 C 0,0 km/h (0 Bft)
Max-Datum _ 19.10.15 19.10.15 19.10.15 19.10.15 19.10.15 19.10.15 19.10.15 19.10.15 19.10.15 19.10.15 19.10.15 19.10.15 - 19.10.15 19.10.15 19.10.15 19.10.15
_ Max-Zeit 12:12 00:00 14:57 12:07 12:07 12:07 09:30 15:42 11:07 20:15 00:00 14:27 - 07:50 12:12 12:07 14:17
Maximum _ 7,7 C 23,2 C 9,3 C 12,0 C 12,0 C 4,4 C 93 % 87 % 100 % 1020,2 hPa 0,0 l/m 1,8 km/h
W-SW (1 Bft)
- 0,08 h 6,6 C 12,0 C 4,5 km/h
W-SW (1 Bft)
Durchschnitt _ 5,6 C 22,9 C 6,9 C 6,9 C 6,9 C 1,4 C 90 % 76 % 26 % 1018,8 hPa #0,0 l/m 0,2 km/h (0 Bft) SW #4:55 h 4,1 C 6,9 C 0,4 km/h (0 Bft)
2015 www.wetterstation-wechselburg.de